sensor_id;sensor_type;location;lat;lon;timestamp;temperature;humidity
1996;DHT22;38556;47.068;15.408;2023-04-03T00:02:21;7.00;69.50
1996;DHT22;38556;47.068;15.408;2023-04-03T00:04:48;7.00;69.80
1996;DHT22;38556;47.068;15.408;2023-04-03T00:07:15;7.00;69.80
1996;DHT22;38556;47.068;15.408;2023-04-03T00:09:42;7.00;69.70
1996;DHT22;38556;47.068;15.408;2023-04-03T00:12:10;6.90;69.60
1996;DHT22;38556;47.068;15.408;2023-04-03T00:14:38;6.90;69.70
1996;DHT22;38556;47.068;15.408;2023-04-03T00:17:06;7.00;69.80
1996;DHT22;38556;47.068;15.408;2023-04-03T00:19:33;7.10;69.60
1996;DHT22;38556;47.068;15.408;2023-04-03T00:22:01;6.90;69.40
1996;DHT22;38556;47.068;15.408;2023-04-03T00:24:28;6.90;69.90
1996;DHT22;38556;47.068;15.408;2023-04-03T00:26:55;6.90;69.90
1996;DHT22;38556;47.068;15.408;2023-04-03T00:29:23;6.80;69.40
1996;DHT22;38556;47.068;15.408;2023-04-03T00:31:50;6.90;69.60
1996;DHT22;38556;47.068;15.408;2023-04-03T00:34:19;6.80;69.80
1996;DHT22;38556;47.068;15.408;2023-04-03T00:36:46;6.80;69.50
1996;DHT22;38556;47.068;15.408;2023-04-03T00:39:13;6.80;69.50
1996;DHT22;38556;47.068;15.408;2023-04-03T00:41:41;6.80;69.50
1996;DHT22;38556;47.068;15.408;2023-04-03T00:44:22;6.90;70.00
1996;DHT22;38556;47.068;15.408;2023-04-03T00:46:50;7.00;70.00
1996;DHT22;38556;47.068;15.408;2023-04-03T00:49:18;7.10;69.80
1996;DHT22;38556;47.068;15.408;2023-04-03T00:51:45;7.00;69.50
1996;DHT22;38556;47.068;15.408;2023-04-03T00:54:13;6.70;70.50
1996;DHT22;38556;47.068;15.408;2023-04-03T00:56:41;6.70;70.40
1996;DHT22;38556;47.068;15.408;2023-04-03T00:59:11;6.60;70.60
1996;DHT22;38556;47.068;15.408;2023-04-03T01:01:39;6.60;70.80
1996;DHT22;38556;47.068;15.408;2023-04-03T01:04:28;6.60;70.70
1996;DHT22;38556;47.068;15.408;2023-04-03T01:09:24;6.50;71.30
1996;DHT22;38556;47.068;15.408;2023-04-03T01:11:51;6.40;72.20
1996;DHT22;38556;47.068;15.408;2023-04-03T01:14:18;6.30;71.70
1996;DHT22;38556;47.068;15.408;2023-04-03T01:16:52;6.30;72.30
1996;DHT22;38556;47.068;15.408;2023-04-03T01:19:22;6.40;72.20
1996;DHT22;38556;47.068;15.408;2023-04-03T01:22:01;6.40;71.90
1996;DHT22;38556;47.068;15.408;2023-04-03T01:27:03;6.50;71.40
1996;DHT22;38556;47.068;15.408;2023-04-03T01:29:30;6.50;71.40
1996;DHT22;38556;47.068;15.408;2023-04-03T01:32:00;6.40;71.70
1996;DHT22;38556;47.068;15.408;2023-04-03T01:34:28;6.40;72.10
1996;DHT22;38556;47.068;15.408;2023-04-03T01:36:57;6.30;72.10
1996;DHT22;38556;47.068;15.408;2023-04-03T01:39:24;6.30;72.10
1996;DHT22;38556;47.068;15.408;2023-04-03T01:41:52;6.50;71.80
1996;DHT22;38556;47.068;15.408;2023-04-03T01:44:19;6.40;72.10
1996;DHT22;38556;47.068;15.408;2023-04-03T01:46:46;6.30;72.20
1996;DHT22;38556;47.068;15.408;2023-04-03T01:49:15;6.30;72.30
1996;DHT22;38556;47.068;15.408;2023-04-03T01:51:42;6.30;72.60
1996;DHT22;38556;47.068;15.408;2023-04-03T01:54:10;6.30;72.80
1996;DHT22;38556;47.068;15.408;2023-04-03T01:56:37;6.20;72.30
1996;DHT22;38556;47.068;15.408;2023-04-03T01:59:05;6.20;72.80
1996;DHT22;38556;47.068;15.408;2023-04-03T02:01:32;6.10;72.30
1996;DHT22;38556;47.068;15.408;2023-04-03T02:03:59;6.10;72.20
1996;DHT22;38556;47.068;15.408;2023-04-03T02:06:28;6.10;72.00
1996;DHT22;38556;47.068;15.408;2023-04-03T02:08:55;6.00;72.00
1996;DHT22;38556;47.068;15.408;2023-04-03T02:11:22;5.90;71.90
1996;DHT22;38556;47.068;15.408;2023-04-03T02:13:50;5.80;71.40
1996;DHT22;38556;47.068;15.408;2023-04-03T02:16:17;5.80;71.00
1996;DHT22;38556;47.068;15.408;2023-04-03T02:18:44;5.80;71.30
1996;DHT22;38556;47.068;15.408;2023-04-03T02:21:12;5.80;71.00
1996;DHT22;38556;47.068;15.408;2023-04-03T02:23:40;5.80;70.80
1996;DHT22;38556;47.068;15.408;2023-04-03T02:26:10;5.80;70.60
1996;DHT22;38556;47.068;15.408;2023-04-03T02:28:38;5.80;70.40
1996;DHT22;38556;47.068;15.408;2023-04-03T02:31:05;5.70;70.50
1996;DHT22;38556;47.068;15.408;2023-04-03T02:33:33;5.70;70.60
1996;DHT22;38556;47.068;15.408;2023-04-03T02:38:30;5.70;70.00
1996;DHT22;38556;47.068;15.408;2023-04-03T02:41:01;5.70;70.00
1996;DHT22;38556;47.068;15.408;2023-04-03T02:43:29;5.70;69.70
1996;DHT22;38556;47.068;15.408;2023-04-03T02:48:24;5.70;69.50
1996;DHT22;38556;47.068;15.408;2023-04-03T02:50:51;5.80;69.90
1996;DHT22;38556;47.068;15.408;2023-04-03T02:53:18;5.70;69.50
1996;DHT22;38556;47.068;15.408;2023-04-03T02:55:46;5.70;69.30
1996;DHT22;38556;47.068;15.408;2023-04-03T02:58:15;5.70;69.20
1996;DHT22;38556;47.068;15.408;2023-04-03T03:00:43;5.80;69.20
1996;DHT22;38556;47.068;15.408;2023-04-03T03:03:11;5.70;69.20
1996;DHT22;38556;47.068;15.408;2023-04-03T03:05:39;5.80;69.10
1996;DHT22;38556;47.068;15.408;2023-04-03T03:08:06;5.70;69.40
1996;DHT22;38556;47.068;15.408;2023-04-03T03:10:34;5.70;69.30
1996;DHT22;38556;47.068;15.408;2023-04-03T03:13:01;5.70;69.20
1996;DHT22;38556;47.068;15.408;2023-04-03T03:15:30;5.80;69.00
1996;DHT22;38556;47.068;15.408;2023-04-03T03:17:57;5.80;69.00
1996;DHT22;38556;47.068;15.408;2023-04-03T03:20:27;5.90;69.00
1996;DHT22;38556;47.068;15.408;2023-04-03T03:22:54;5.80;69.10
1996;DHT22;38556;47.068;15.408;2023-04-03T03:25:22;5.90;69.30
1996;DHT22;38556;47.068;15.408;2023-04-03T03:27:49;5.90;68.50
1996;DHT22;38556;47.068;15.408;2023-04-03T03:30:16;5.90;68.70
1996;DHT22;38556;47.068;15.408;2023-04-03T03:32:45;5.90;68.90
1996;DHT22;38556;47.068;15.408;2023-04-03T03:35:12;5.90;68.90
1996;DHT22;38556;47.068;15.408;2023-04-03T03:40:08;5.80;68.20
1996;DHT22;38556;47.068;15.408;2023-04-03T03:42:36;5.80;68.70
1996;DHT22;38556;47.068;15.408;2023-04-03T03:47:32;5.70;68.50
1996;DHT22;38556;47.068;15.408;2023-04-03T03:50:00;5.70;68.50
1996;DHT22;38556;47.068;15.408;2023-04-03T03:52:28;5.80;68.50
1996;DHT22;38556;47.068;15.408;2023-04-03T03:54:55;5.80;68.10
1996;DHT22;38556;47.068;15.408;2023-04-03T03:57:23;5.80;68.00
1996;DHT22;38556;47.068;15.408;2023-04-03T03:59:53;5.80;68.10
1996;DHT22;38556;47.068;15.408;2023-04-03T04:02:20;5.80;68.50
1996;DHT22;38556;47.068;15.408;2023-04-03T04:04:48;5.80;67.80
1996;DHT22;38556;47.068;15.408;2023-04-03T04:07:17;5.80;67.70
1996;DHT22;38556;47.068;15.408;2023-04-03T04:09:44;5.60;67.50
1996;DHT22;38556;47.068;15.408;2023-04-03T04:12:11;5.70;67.20
1996;DHT22;38556;47.068;15.408;2023-04-03T04:14:39;5.70;67.40
1996;DHT22;38556;47.068;15.408;2023-04-03T04:17:06;5.70;67.80
1996;DHT22;38556;47.068;15.408;2023-04-03T04:19:33;5.70;68.00
1996;DHT22;38556;47.068;15.408;2023-04-03T04:22:00;5.80;68.40
1996;DHT22;38556;47.068;15.408;2023-04-03T04:24:29;5.80;68.50
1996;DHT22;38556;47.068;15.408;2023-04-03T04:26:56;5.90;68.20
1996;DHT22;38556;47.068;15.408;2023-04-03T04:29:24;5.90;68.10
1996;DHT22;38556;47.068;15.408;2023-04-03T04:31:51;6.00;68.20
1996;DHT22;38556;47.068;15.408;2023-04-03T04:34:19;6.00;68.10
1996;DHT22;38556;47.068;15.408;2023-04-03T04:36:46;5.90;68.20
1996;DHT22;38556;47.068;15.408;2023-04-03T04:39:14;5.90;68.30
1996;DHT22;38556;47.068;15.408;2023-04-03T04:41:42;5.90;68.20
1996;DHT22;38556;47.068;15.408;2023-04-03T04:44:10;6.00;68.40
1996;DHT22;38556;47.068;15.408;2023-04-03T04:46:37;5.90;68.50
1996;DHT22;38556;47.068;15.408;2023-04-03T04:49:05;5.90;69.00
1996;DHT22;38556;47.068;15.408;2023-04-03T04:51:32;6.10;77.20
1996;DHT22;38556;47.068;15.408;2023-04-03T04:53:59;6.30;75.80
1996;DHT22;38556;47.068;15.408;2023-04-03T04:56:27;6.30;73.10
1996;DHT22;38556;47.068;15.408;2023-04-03T04:58:55;6.30;70.30
1996;DHT22;38556;47.068;15.408;2023-04-03T05:01:23;6.20;68.80
1996;DHT22;38556;47.068;15.408;2023-04-03T05:03:50;6.10;70.70
1996;DHT22;38556;47.068;15.408;2023-04-03T05:06:17;6.20;68.70
1996;DHT22;38556;47.068;15.408;2023-04-03T05:08:45;6.00;68.10
1996;DHT22;38556;47.068;15.408;2023-04-03T05:11:12;6.00;68.40
1996;DHT22;38556;47.068;15.408;2023-04-03T05:13:39;5.90;68.50
1996;DHT22;38556;47.068;15.408;2023-04-03T05:16:08;5.90;69.90
1996;DHT22;38556;47.068;15.408;2023-04-03T05:18:35;5.80;68.90
1996;DHT22;38556;47.068;15.408;2023-04-03T05:21:03;5.80;68.60
1996;DHT22;38556;47.068;15.408;2023-04-03T05:23:30;5.80;68.50
1996;DHT22;38556;47.068;15.408;2023-04-03T05:25:57;5.70;68.20
1996;DHT22;38556;47.068;15.408;2023-04-03T05:28:25;5.70;68.20
1996;DHT22;38556;47.068;15.408;2023-04-03T05:30:55;5.80;67.90
1996;DHT22;38556;47.068;15.408;2023-04-03T05:33:25;5.60;68.00
1996;DHT22;38556;47.068;15.408;2023-04-03T05:35:53;5.60;68.20
1996;DHT22;38556;47.068;15.408;2023-04-03T05:38:20;5.50;68.30
1996;DHT22;38556;47.068;15.408;2023-04-03T05:40:48;5.60;68.40
1996;DHT22;38556;47.068;15.408;2023-04-03T05:43:15;5.70;68.10
1996;DHT22;38556;47.068;15.408;2023-04-03T05:45:43;5.80;67.70
1996;DHT22;38556;47.068;15.408;2023-04-03T05:48:10;5.70;67.60
1996;DHT22;38556;47.068;15.408;2023-04-03T05:50:39;5.80;67.50
1996;DHT22;38556;47.068;15.408;2023-04-03T05:53:15;5.90;67.00
1996;DHT22;38556;47.068;15.408;2023-04-03T05:55:44;5.90;67.10
1996;DHT22;38556;47.068;15.408;2023-04-03T06:03:06;6.00;67.00
1996;DHT22;38556;47.068;15.408;2023-04-03T06:05:34;5.90;67.00
1996;DHT22;38556;47.068;15.408;2023-04-03T06:08:03;5.80;67.00
1996;DHT22;38556;47.068;15.408;2023-04-03T06:10:30;5.90;67.60
1996;DHT22;38556;47.068;15.408;2023-04-03T06:12:57;5.80;68.20
1996;DHT22;38556;47.068;15.408;2023-04-03T06:15:25;5.80;67.80
1996;DHT22;38556;47.068;15.408;2023-04-03T06:17:52;5.80;68.30
1996;DHT22;38556;47.068;15.408;2023-04-03T06:20:20;5.80;68.50
1996;DHT22;38556;47.068;15.408;2023-04-03T06:22:48;5.80;68.40
1996;DHT22;38556;47.068;15.408;2023-04-03T06:25:18;5.70;68.80
1996;DHT22;38556;47.068;15.408;2023-04-03T06:30:13;5.80;69.00
1996;DHT22;38556;47.068;15.408;2023-04-03T06:32:40;5.90;69.00
1996;DHT22;38556;47.068;15.408;2023-04-03T06:35:09;5.90;69.00
1996;DHT22;38556;47.068;15.408;2023-04-03T06:37:36;5.70;69.00
1996;DHT22;38556;47.068;15.408;2023-04-03T06:40:05;5.60;69.40
1996;DHT22;38556;47.068;15.408;2023-04-03T06:45:02;5.80;70.00
1996;DHT22;38556;47.068;15.408;2023-04-03T06:47:29;5.80;69.70
1996;DHT22;38556;47.068;15.408;2023-04-03T06:49:57;5.70;69.70
1996;DHT22;38556;47.068;15.408;2023-04-03T06:52:24;5.80;70.40
1996;DHT22;38556;47.068;15.408;2023-04-03T06:54:52;5.80;70.10
1996;DHT22;38556;47.068;15.408;2023-04-03T06:59:52;5.80;70.20
1996;DHT22;38556;47.068;15.408;2023-04-03T07:02:19;5.90;69.60
1996;DHT22;38556;47.068;15.408;2023-04-03T07:04:47;5.80;69.30
1996;DHT22;38556;47.068;15.408;2023-04-03T07:07:14;5.90;69.50
1996;DHT22;38556;47.068;15.408;2023-04-03T07:09:43;5.80;69.80
1996;DHT22;38556;47.068;15.408;2023-04-03T07:12:12;5.90;69.70
1996;DHT22;38556;47.068;15.408;2023-04-03T07:14:39;6.00;69.50
1996;DHT22;38556;47.068;15.408;2023-04-03T07:17:09;6.00;69.10
1996;DHT22;38556;47.068;15.408;2023-04-03T07:19:36;5.90;68.60
1996;DHT22;38556;47.068;15.408;2023-04-03T07:22:03;5.80;68.70
1996;DHT22;38556;47.068;15.408;2023-04-03T07:24:31;5.80;68.40
1996;DHT22;38556;47.068;15.408;2023-04-03T07:29:26;8.20;71.60
1996;DHT22;38556;47.068;15.408;2023-04-03T07:31:54;5.90;68.90
1996;DHT22;38556;47.068;15.408;2023-04-03T07:34:24;5.90;68.90
1996;DHT22;38556;47.068;15.408;2023-04-03T07:36:51;5.90;68.70
1996;DHT22;38556;47.068;15.408;2023-04-03T07:39:18;5.90;67.70
1996;DHT22;38556;47.068;15.408;2023-04-03T07:41:46;5.90;67.10
1996;DHT22;38556;47.068;15.408;2023-04-03T07:44:13;5.90;67.40
1996;DHT22;38556;47.068;15.408;2023-04-03T07:46:41;5.90;67.00
1996;DHT22;38556;47.068;15.408;2023-04-03T07:49:08;5.90;66.90
1996;DHT22;38556;47.068;15.408;2023-04-03T07:51:37;5.90;67.60
1996;DHT22;38556;47.068;15.408;2023-04-03T07:54:05;6.00;66.80
1996;DHT22;38556;47.068;15.408;2023-04-03T07:56:33;6.00;65.90
1996;DHT22;38556;47.068;15.408;2023-04-03T07:59:00;5.90;66.30
1996;DHT22;38556;47.068;15.408;2023-04-03T08:01:28;6.00;65.70
1996;DHT22;38556;47.068;15.408;2023-04-03T08:03:58;6.00;65.80
1996;DHT22;38556;47.068;15.408;2023-04-03T08:06:26;6.10;65.60
1996;DHT22;38556;47.068;15.408;2023-04-03T08:08:57;6.00;65.00
1996;DHT22;38556;47.068;15.408;2023-04-03T08:11:24;6.00;64.60
1996;DHT22;38556;47.068;15.408;2023-04-03T08:16:23;6.20;64.10
1996;DHT22;38556;47.068;15.408;2023-04-03T08:18:51;6.20;63.00
1996;DHT22;38556;47.068;15.408;2023-04-03T08:21:18;6.20;63.20
1996;DHT22;38556;47.068;15.408;2023-04-03T08:23:48;6.20;64.00
1996;DHT22;38556;47.068;15.408;2023-04-03T08:26:19;6.20;63.80
1996;DHT22;38556;47.068;15.408;2023-04-03T08:28:47;6.10;63.50
1996;DHT22;38556;47.068;15.408;2023-04-03T08:31:17;6.10;64.00
1996;DHT22;38556;47.068;15.408;2023-04-03T08:33:45;6.20;62.60
1996;DHT22;38556;47.068;15.408;2023-04-03T08:36:20;6.30;62.40
1996;DHT22;38556;47.068;15.408;2023-04-03T08:38:48;6.30;60.60
1996;DHT22;38556;47.068;15.408;2023-04-03T08:41:24;6.40;60.60
1996;DHT22;38556;47.068;15.408;2023-04-03T08:44:10;6.40;60.00
1996;DHT22;38556;47.068;15.408;2023-04-03T08:46:48;6.30;60.50
1996;DHT22;38556;47.068;15.408;2023-04-03T08:49:22;6.30;59.50
1996;DHT22;38556;47.068;15.408;2023-04-03T08:51:51;6.20;57.70
1996;DHT22;38556;47.068;15.408;2023-04-03T08:54:25;6.40;58.30
1996;DHT22;38556;47.068;15.408;2023-04-03T08:56:58;6.50;57.80
1996;DHT22;38556;47.068;15.408;2023-04-03T08:59:31;6.40;56.10
1996;DHT22;38556;47.068;15.408;2023-04-03T09:02:04;6.40;56.20
1996;DHT22;38556;47.068;15.408;2023-04-03T09:04:32;6.40;55.40
1996;DHT22;38556;47.068;15.408;2023-04-03T09:07:07;6.40;54.90
1996;DHT22;38556;47.068;15.408;2023-04-03T09:09:37;6.40;55.20
1996;DHT22;38556;47.068;15.408;2023-04-03T09:12:16;6.40;54.30
1996;DHT22;38556;47.068;15.408;2023-04-03T09:14:49;6.50;54.70
1996;DHT22;38556;47.068;15.408;2023-04-03T09:17:27;6.60;54.80
1996;DHT22;38556;47.068;15.408;2023-04-03T09:20:00;6.70;54.60
1996;DHT22;38556;47.068;15.408;2023-04-03T09:25:07;6.70;53.40
1996;DHT22;38556;47.068;15.408;2023-04-03T09:27:38;6.70;53.90
1996;DHT22;38556;47.068;15.408;2023-04-03T09:30:11;6.70;53.80
1996;DHT22;38556;47.068;15.408;2023-04-03T09:32:39;6.70;53.70
1996;DHT22;38556;47.068;15.408;2023-04-03T09:35:17;6.60;53.60
1996;DHT22;38556;47.068;15.408;2023-04-03T09:37:47;6.80;54.00
1996;DHT22;38556;47.068;15.408;2023-04-03T09:40:30;6.90;53.80
1996;DHT22;38556;47.068;15.408;2023-04-03T09:43:20;6.80;53.10
1996;DHT22;38556;47.068;15.408;2023-04-03T09:45:49;7.20;53.90
1996;DHT22;38556;47.068;15.408;2023-04-03T09:48:19;7.40;53.60
1996;DHT22;38556;47.068;15.408;2023-04-03T09:51:04;7.60;53.70
1996;DHT22;38556;47.068;15.408;2023-04-03T09:53:35;7.60;53.20
1996;DHT22;38556;47.068;15.408;2023-04-03T09:56:18;7.10;53.40
1996;DHT22;38556;47.068;15.408;2023-04-03T09:58:51;7.40;54.20
1996;DHT22;38556;47.068;15.408;2023-04-03T10:01:34;7.50;54.60
1996;DHT22;38556;47.068;15.408;2023-04-03T10:04:08;7.60;54.60
1996;DHT22;38556;47.068;15.408;2023-04-03T10:06:38;7.60;54.70
1996;DHT22;38556;47.068;15.408;2023-04-03T10:09:19;7.50;55.20
1996;DHT22;38556;47.068;15.408;2023-04-03T10:11:58;7.40;54.90
1996;DHT22;38556;47.068;15.408;2023-04-03T10:17:02;7.20;55.10
1996;DHT22;38556;47.068;15.408;2023-04-03T10:19:36;7.20;55.50
1996;DHT22;38556;47.068;15.408;2023-04-03T10:22:18;7.10;55.80
1996;DHT22;38556;47.068;15.408;2023-04-03T10:24:56;7.10;56.40
1996;DHT22;38556;47.068;15.408;2023-04-03T10:27:42;7.00;55.90
1996;DHT22;38556;47.068;15.408;2023-04-03T10:30:28;6.90;55.70
1996;DHT22;38556;47.068;15.408;2023-04-03T10:33:02;7.10;56.00
1996;DHT22;38556;47.068;15.408;2023-04-03T10:35:42;7.20;56.40
1996;DHT22;38556;47.068;15.408;2023-04-03T10:38:18;7.20;56.10
1996;DHT22;38556;47.068;15.408;2023-04-03T10:40:54;7.30;55.80
1996;DHT22;38556;47.068;15.408;2023-04-03T10:43:32;7.40;55.50
1996;DHT22;38556;47.068;15.408;2023-04-03T10:46:08;7.20;55.30
1996;DHT22;38556;47.068;15.408;2023-04-03T10:48:51;7.10;55.80
1996;DHT22;38556;47.068;15.408;2023-04-03T10:51:27;7.20;56.10
1996;DHT22;38556;47.068;15.408;2023-04-03T10:54:02;7.20;55.40
1996;DHT22;38556;47.068;15.408;2023-04-03T10:56:35;7.20;55.10
1996;DHT22;38556;47.068;15.408;2023-04-03T11:02:00;7.20;54.60
1996;DHT22;38556;47.068;15.408;2023-04-03T11:04:33;7.30;54.90
1996;DHT22;38556;47.068;15.408;2023-04-03T11:07:04;7.30;54.70
1996;DHT22;38556;47.068;15.408;2023-04-03T11:09:37;7.40;54.00
1996;DHT22;38556;47.068;15.408;2023-04-03T11:12:11;7.60;54.80
1996;DHT22;38556;47.068;15.408;2023-04-03T11:14:40;7.80;54.30
1996;DHT22;38556;47.068;15.408;2023-04-03T11:17:22;7.60;53.30
1996;DHT22;38556;47.068;15.408;2023-04-03T11:19:59;7.70;53.20
1996;DHT22;38556;47.068;15.408;2023-04-03T11:22:30;7.70;53.80
1996;DHT22;38556;47.068;15.408;2023-04-03T11:25:04;8.10;53.40
1996;DHT22;38556;47.068;15.408;2023-04-03T11:27:38;8.10;52.90
1996;DHT22;38556;47.068;15.408;2023-04-03T11:30:14;7.90;54.00
1996;DHT22;38556;47.068;15.408;2023-04-03T11:33:05;7.90;54.00
1996;DHT22;38556;47.068;15.408;2023-04-03T11:35:35;7.70;53.90
1996;DHT22;38556;47.068;15.408;2023-04-03T11:38:04;7.70;54.10
1996;DHT22;38556;47.068;15.408;2023-04-03T11:40:34;7.50;54.00
1996;DHT22;38556;47.068;15.408;2023-04-03T11:43:07;7.70;54.80
1996;DHT22;38556;47.068;15.408;2023-04-03T11:45:55;7.50;53.30
1996;DHT22;38556;47.068;15.408;2023-04-03T11:48:50;7.60;53.00
1996;DHT22;38556;47.068;15.408;2023-04-03T11:51:39;7.60;53.60
1996;DHT22;38556;47.068;15.408;2023-04-03T11:57:43;8.20;52.80
1996;DHT22;38556;47.068;15.408;2023-04-03T12:00:48;8.30;52.80
1996;DHT22;38556;47.068;15.408;2023-04-03T12:09:26;8.30;52.00
1996;DHT22;38556;47.068;15.408;2023-04-03T12:11:56;8.50;52.70
1996;DHT22;38556;47.068;15.408;2023-04-03T12:14:24;8.40;52.10
1996;DHT22;38556;47.068;15.408;2023-04-03T12:16:53;8.30;52.10
1996;DHT22;38556;47.068;15.408;2023-04-03T12:19:35;8.30;52.70
1996;DHT22;38556;47.068;15.408;2023-04-03T12:22:13;8.30;52.30
1996;DHT22;38556;47.068;15.408;2023-04-03T12:24:43;7.90;52.80
1996;DHT22;38556;47.068;15.408;2023-04-03T12:27:33;7.90;53.30
1996;DHT22;38556;47.068;15.408;2023-04-03T12:30:18;7.90;53.30
1996;DHT22;38556;47.068;15.408;2023-04-03T12:32:55;7.70;53.00
1996;DHT22;38556;47.068;15.408;2023-04-03T12:35:28;8.00;54.30
1996;DHT22;38556;47.068;15.408;2023-04-03T12:38:33;8.80;55.00
1996;DHT22;38556;47.068;15.408;2023-04-03T12:41:17;8.20;58.60
1996;DHT22;38556;47.068;15.408;2023-04-03T12:46:45;8.10;52.20
1996;DHT22;38556;47.068;15.408;2023-04-03T12:49:26;8.00;52.00
1996;DHT22;38556;47.068;15.408;2023-04-03T12:51:57;8.00;51.30
1996;DHT22;38556;47.068;15.408;2023-04-03T12:54:30;7.80;51.50
1996;DHT22;38556;47.068;15.408;2023-04-03T12:57:20;7.90;51.50
1996;DHT22;38556;47.068;15.408;2023-04-03T12:59:48;8.30;51.80
1996;DHT22;38556;47.068;15.408;2023-04-03T13:02:22;8.50;51.30
1996;DHT22;38556;47.068;15.408;2023-04-03T13:04:51;8.70;51.30
1996;DHT22;38556;47.068;15.408;2023-04-03T13:07:21;8.80;50.80
1996;DHT22;38556;47.068;15.408;2023-04-03T13:09:57;8.70;50.70
1996;DHT22;38556;47.068;15.408;2023-04-03T13:12:27;8.70;51.20
1996;DHT22;38556;47.068;15.408;2023-04-03T13:14:57;8.70;51.60
1996;DHT22;38556;47.068;15.408;2023-04-03T13:17:25;8.50;51.60
1996;DHT22;38556;47.068;15.408;2023-04-03T13:19:54;8.40;52.10
1996;DHT22;38556;47.068;15.408;2023-04-03T13:22:28;8.60;52.70
1996;DHT22;38556;47.068;15.408;2023-04-03T13:24:58;8.80;51.60
1996;DHT22;38556;47.068;15.408;2023-04-03T13:27:29;9.00;51.50
1996;DHT22;38556;47.068;15.408;2023-04-03T13:29:59;8.50;50.10
1996;DHT22;38556;47.068;15.408;2023-04-03T13:32:29;8.60;50.30
1996;DHT22;38556;47.068;15.408;2023-04-03T13:34:58;8.40;50.90
1996;DHT22;38556;47.068;15.408;2023-04-03T13:37:27;8.70;51.60
1996;DHT22;38556;47.068;15.408;2023-04-03T13:40:03;8.90;52.10
1996;DHT22;38556;47.068;15.408;2023-04-03T13:42:39;8.80;51.10
1996;DHT22;38556;47.068;15.408;2023-04-03T13:45:17;8.40;52.30
1996;DHT22;38556;47.068;15.408;2023-04-03T13:47:47;8.20;53.10
1996;DHT22;38556;47.068;15.408;2023-04-03T13:50:18;8.30;52.70
1996;DHT22;38556;47.068;15.408;2023-04-03T13:52:48;8.40;52.40
1996;DHT22;38556;47.068;15.408;2023-04-03T13:55:21;8.70;52.10
1996;DHT22;38556;47.068;15.408;2023-04-03T13:57:52;8.80;52.40
1996;DHT22;38556;47.068;15.408;2023-04-03T14:00:26;9.10;52.50
1996;DHT22;38556;47.068;15.408;2023-04-03T14:02:54;9.00;51.70
1996;DHT22;38556;47.068;15.408;2023-04-03T14:05:24;9.50;50.40
1996;DHT22;38556;47.068;15.408;2023-04-03T14:07:52;9.30;50.50
1996;DHT22;38556;47.068;15.408;2023-04-03T14:10:20;9.40;51.00
1996;DHT22;38556;47.068;15.408;2023-04-03T14:12:48;9.30;50.10
1996;DHT22;38556;47.068;15.408;2023-04-03T14:15:20;8.80;50.20
1996;DHT22;38556;47.068;15.408;2023-04-03T14:17:50;8.80;50.40
1996;DHT22;38556;47.068;15.408;2023-04-03T14:20:19;9.00;50.90
1996;DHT22;38556;47.068;15.408;2023-04-03T14:22:48;9.10;50.70
1996;DHT22;38556;47.068;15.408;2023-04-03T14:25:17;8.90;50.00
1996;DHT22;38556;47.068;15.408;2023-04-03T14:27:47;8.70;50.80
1996;DHT22;38556;47.068;15.408;2023-04-03T14:30:19;8.70;51.60
1996;DHT22;38556;47.068;15.408;2023-04-03T14:32:48;8.70;51.90
1996;DHT22;38556;47.068;15.408;2023-04-03T14:35:16;9.00;52.20
1996;DHT22;38556;47.068;15.408;2023-04-03T14:37:44;9.00;49.50
1996;DHT22;38556;47.068;15.408;2023-04-03T14:40:17;9.00;48.90
1996;DHT22;38556;47.068;15.408;2023-04-03T14:42:45;9.20;49.30
1996;DHT22;38556;47.068;15.408;2023-04-03T14:45:15;9.40;49.30
1996;DHT22;38556;47.068;15.408;2023-04-03T14:47:46;9.10;48.60
1996;DHT22;38556;47.068;15.408;2023-04-03T14:50:15;8.90;47.80
1996;DHT22;38556;47.068;15.408;2023-04-03T14:52:44;9.10;48.20
1996;DHT22;38556;47.068;15.408;2023-04-03T14:55:15;9.20;48.00
1996;DHT22;38556;47.068;15.408;2023-04-03T15:00:14;9.40;48.10
1996;DHT22;38556;47.068;15.408;2023-04-03T15:07:41;9.20;47.50
1996;DHT22;38556;47.068;15.408;2023-04-03T15:10:17;9.30;47.90
1996;DHT22;38556;47.068;15.408;2023-04-03T15:12:45;9.50;48.00
1996;DHT22;38556;47.068;15.408;2023-04-03T15:15:14;9.60;48.00
1996;DHT22;38556;47.068;15.408;2023-04-03T15:17:42;9.30;48.20
1996;DHT22;38556;47.068;15.408;2023-04-03T15:20:14;9.80;49.00
1996;DHT22;38556;47.068;15.408;2023-04-03T15:22:42;9.90;48.00
1996;DHT22;38556;47.068;15.408;2023-04-03T15:25:10;9.80;47.70
1996;DHT22;38556;47.068;15.408;2023-04-03T15:27:38;10.00;47.00
1996;DHT22;38556;47.068;15.408;2023-04-03T15:30:07;9.70;48.30
1996;DHT22;38556;47.068;15.408;2023-04-03T15:32:35;10.10;47.70
1996;DHT22;38556;47.068;15.408;2023-04-03T15:35:03;9.70;47.40
1996;DHT22;38556;47.068;15.408;2023-04-03T15:37:32;9.30;48.80
1996;DHT22;38556;47.068;15.408;2023-04-03T15:39:59;9.50;49.10
1996;DHT22;38556;47.068;15.408;2023-04-03T15:42:27;10.00;47.50
1996;DHT22;38556;47.068;15.408;2023-04-03T15:44:54;9.80;48.40
1996;DHT22;38556;47.068;15.408;2023-04-03T15:47:22;9.80;48.70
1996;DHT22;38556;47.068;15.408;2023-04-03T15:49:49;10.00;46.70
1996;DHT22;38556;47.068;15.408;2023-04-03T15:52:16;10.40;46.70
1996;DHT22;38556;47.068;15.408;2023-04-03T15:54:45;9.70;48.00
1996;DHT22;38556;47.068;15.408;2023-04-03T15:57:13;9.40;47.80
1996;DHT22;38556;47.068;15.408;2023-04-03T15:59:40;8.80;48.40
1996;DHT22;38556;47.068;15.408;2023-04-03T16:02:10;8.70;48.50
1996;DHT22;38556;47.068;15.408;2023-04-03T16:04:39;8.80;48.30
1996;DHT22;38556;47.068;15.408;2023-04-03T16:07:06;8.90;48.50
1996;DHT22;38556;47.068;15.408;2023-04-03T16:09:34;8.90;48.10
1996;DHT22;38556;47.068;15.408;2023-04-03T16:12:03;8.60;48.70
1996;DHT22;38556;47.068;15.408;2023-04-03T16:14:31;8.90;49.00
1996;DHT22;38556;47.068;15.408;2023-04-03T16:16:58;9.10;48.70
1996;DHT22;38556;47.068;15.408;2023-04-03T16:19:26;9.00;48.00
1996;DHT22;38556;47.068;15.408;2023-04-03T16:21:54;9.00;48.70
1996;DHT22;38556;47.068;15.408;2023-04-03T16:24:22;9.80;49.10
1996;DHT22;38556;47.068;15.408;2023-04-03T16:26:49;9.40;48.20
1996;DHT22;38556;47.068;15.408;2023-04-03T16:29:20;9.60;49.30
1996;DHT22;38556;47.068;15.408;2023-04-03T16:31:49;8.80;47.70
1996;DHT22;38556;47.068;15.408;2023-04-03T16:34:18;10.60;50.10
1996;DHT22;38556;47.068;15.408;2023-04-03T16:36:45;10.80;46.20
1996;DHT22;38556;47.068;15.408;2023-04-03T16:39:13;10.80;46.10
1996;DHT22;38556;47.068;15.408;2023-04-03T16:41:40;10.50;46.20
1996;DHT22;38556;47.068;15.408;2023-04-03T16:44:07;9.40;48.40
1996;DHT22;38556;47.068;15.408;2023-04-03T16:46:36;9.50;48.30
1996;DHT22;38556;47.068;15.408;2023-04-03T16:49:04;8.50;47.30
1996;DHT22;38556;47.068;15.408;2023-04-03T16:51:32;8.10;48.80
1996;DHT22;38556;47.068;15.408;2023-04-03T16:54:00;8.20;49.90
1996;DHT22;38556;47.068;15.408;2023-04-03T16:56:27;7.80;48.60
1996;DHT22;38556;47.068;15.408;2023-04-03T16:58:54;7.40;48.50
1996;DHT22;38556;47.068;15.408;2023-04-03T17:01:23;7.10;48.90
1996;DHT22;38556;47.068;15.408;2023-04-03T17:03:51;7.10;49.00
1996;DHT22;38556;47.068;15.408;2023-04-03T17:06:21;7.00;49.10